Terminal Aerodrome Forecast
Issued by NWS Portland, OR

Current Version | Previous Version | Text Only | Print | Product List | Glossary On
Versions: 1 2 3 4 5 6 7 8 9 10 11 12 13 14 15 16 17
000
FTUS46 KPQR 202324
TAFEUG
TAF
KEUG 202324Z 2100/2124 20010KT P6SM SCT025 OVC040
     FM210400 18005KT P6SM -RA SCT015 OVC025
     FM210700 18006KT 5SM -RASN BKN015 OVC025
     FM210900 01005KT 2SM -SN SCT007 OVC015
     FM211200 01005KT P6SM SCT025=

USA.gov is the U.S. government's official web portal to all federal, state and local government web resources and services.